PROFILE

 METAR AND TAF INFORMATION
ADDS - METARS form results

(1250 UTC 26 March 2019)
http://aviationweather.gov/metar/data/
 
GOBD 261230Z 01013KT 9999 FEW020 25/12 Q1015 NOSIG
GOBD 261200Z 35013KT 9999 FEW020 24/13 Q1015 NOSIG
TAF GOBD 261130Z 2612/2718 35010KT CAVOK 

 AIRPORT MAP

 RUNWAY INFORMATION
Runway 01 Runway length 11483 ft Runway width 197 ft
Runway elevation 272 ft Runway displaced threshold 0 ft Runway heading 7
Runway 19 Runway length 11483 ft Runway width 197 ft
Runway elevation 251 ft Runway displaced threshold 0 ft Runway heading 187

 AIRPORT FREQUENCIES
Type GND Name Dakar GND Frequency 121.8 MHZ
Type A/D Name Dakar TWR Frequency 118.8 MHZ
Type ATIS Name Dakar ATIS Frequency 126.6 MHZ
Type APP Name Dakar APP Frequency 120.5 MHZ

 AIRPORT NEAR NAVIGATION AIDS